Lawrence, Pennsylvania
Current Conditions -  °F | °C
As of 6:53 PM on Sunday 23 Nov 2014 (Local Time) from KAGC Reporting Station
Clear Clear  
Wind Chill: 57°   Ceiling: Unl
Heat Index: 57°   Visibility: 10mi
Dew Point: 35°   Wind: 16mph
Humidity: 44%   Direction: 140°SE
Pressure: 29.75"   Gusts: NA
Location:  40.3°N, 80.12°W
Report Text: KAGC 232353Z 14014KT 10SM CLR 14/02 A2975 RMK AO2 SLP081 T01390017 10178 20139 58034
Loading
Personal Weather Stations






























Interactive Weather Map New forecast layout! Learn more

10-Day Weather Forecast

Advertisements
Track Severe Weather on mobile